IAD weather

Washington Dulles International Airport
Washington, District of Columbia, United States

Public forecast

Using degrees Fahrenheit for public forecast. Weather courtesy of forecast.io.

METAR (pilot weather report)

Retrieved 2018/12/19 13:52 UTC (1 hour ago):

KIAD 191352Z 00000KT 10SM SCT150 BKN250 00/M02 A3019 RMK AO2 SLP225 T00001022

TAF (pilot weather forecast)

Retrieved 2018/12/19 12:45 UTC (2 hours ago):

TAF KIAD 191142Z 1912/2018 VRB03KT P6SM FEW250 FM191700 18006KT P6SM SCT200 FM192300 VRB03KT P6SM SCT200 FM201200 VRB03KT P6SM BKN025 BKN130 FM201700 VRB04KT 5SM -RA BKN008 OVC015